createdAt,value
2023-03-26T00:01:25.104Z,8.10
2023-03-26T00:04:10.539Z,8.23
2023-03-26T00:06:56.031Z,7.47
2023-03-26T00:09:41.503Z,8.47
2023-03-26T00:12:26.738Z,8.30
2023-03-26T00:15:12.184Z,8.30
2023-03-26T00:18:01.464Z,9.23
2023-03-26T00:20:47.281Z,8.90
2023-03-26T00:23:35.081Z,10.80
2023-03-26T00:26:21.028Z,10.07
2023-03-26T00:29:06.738Z,10.30
2023-03-26T00:31:52.172Z,9.07
2023-03-26T00:34:37.494Z,8.17
2023-03-26T00:37:23.845Z,7.87
2023-03-26T00:40:10.242Z,8.17
2023-03-26T00:42:55.987Z,8.23
2023-03-26T00:45:41.591Z,8.40
2023-03-26T00:48:41.850Z,8.50
2023-03-26T00:51:30.230Z,8.43
2023-03-26T00:54:15.592Z,8.50
2023-03-26T00:57:01.016Z,8.83
2023-03-26T00:59:46.306Z,8.77
2023-03-26T01:02:31.596Z,8.90
2023-03-26T01:05:40.656Z,9.10
2023-03-26T01:08:33.147Z,9.60
2023-03-26T01:11:22.146Z,9.30
2023-03-26T01:14:11.847Z,9.03
2023-03-26T01:17:02.419Z,9.07
2023-03-26T01:20:07.556Z,9.47
2023-03-26T01:23:01.585Z,9.27
2023-03-26T01:25:56.575Z,9.77
2023-03-26T01:28:43.064Z,10.03
2023-03-26T01:31:48.910Z,10.77
2023-03-26T01:34:49.291Z,11.23
2023-03-26T01:37:49.007Z,11.30
2023-03-26T01:40:44.803Z,11.40
2023-03-26T01:43:53.680Z,10.83
2023-03-26T01:46:39.979Z,11.37
2023-03-26T01:49:28.006Z,10.47
2023-03-26T01:52:17.365Z,9.70
2023-03-26T01:55:02.699Z,9.53
2023-03-26T01:58:11.888Z,10.03
2023-03-26T02:01:10.978Z,9.13
2023-03-26T02:04:04.487Z,10.50
2023-03-26T02:07:19.711Z,11.20
2023-03-26T02:10:24.115Z,9.97
2023-03-26T02:13:10.638Z,10.30
2023-03-26T02:16:02.251Z,10.10
2023-03-26T02:18:48.945Z,10.63
2023-03-26T02:21:34.325Z,10.20
2023-03-26T02:24:19.817Z,10.50
2023-03-26T02:27:05.803Z,10.73
2023-03-26T02:29:50.747Z,10.77
2023-03-26T02:32:36.738Z,11.27
2023-03-26T02:35:22.492Z,10.67
2023-03-26T02:38:07.955Z,11.00
2023-03-26T02:40:54.128Z,12.10
2023-03-26T02:43:39.516Z,11.27
2023-03-26T02:46:24.309Z,11.57
2023-03-26T02:49:09.740Z,11.30
2023-03-26T02:51:54.995Z,12.77
2023-03-26T02:54:39.914Z,11.07
2023-03-26T02:57:25.364Z,13.07
2023-03-26T03:00:11.373Z,12.67
2023-03-26T03:02:56.552Z,12.20
2023-03-26T03:05:41.971Z,13.03
2023-03-26T03:08:28.110Z,13.17
2023-03-26T03:11:18.840Z,14.03
2023-03-26T03:14:04.435Z,14.97
2023-03-26T03:16:49.491Z,16.77
2023-03-26T03:19:35.114Z,17.47
2023-03-26T03:22:20.584Z,19.00
2023-03-26T03:25:06.398Z,19.03
2023-03-26T03:27:51.425Z,18.97
2023-03-26T03:30:37.208Z,19.97
2023-03-26T03:33:23.680Z,21.70
2023-03-26T03:36:20.329Z,23.03
2023-03-26T03:39:06.751Z,22.03
2023-03-26T03:41:51.564Z,22.83
2023-03-26T03:44:37.190Z,21.80
2023-03-26T03:47:22.251Z,23.30
2023-03-26T03:50:09.068Z,24.77
2023-03-26T03:52:54.627Z,24.10
2023-03-26T03:55:39.850Z,25.17
2023-03-26T03:58:26.438Z,23.73
2023-03-26T04:01:11.694Z,23.87
2023-03-26T04:03:58.310Z,22.93
2023-03-26T04:06:44.059Z,22.27
2023-03-26T04:09:29.257Z,21.80
2023-03-26T04:12:14.819Z,20.93
2023-03-26T04:15:00.304Z,20.47
2023-03-26T04:17:45.713Z,19.27
2023-03-26T04:20:31.125Z,18.13
2023-03-26T04:23:18.218Z,18.20
2023-03-26T04:26:06.260Z,16.57
2023-03-26T04:28:59.300Z,17.80
2023-03-26T04:31:44.694Z,16.20
2023-03-26T04:34:30.094Z,16.30
2023-03-26T04:37:29.201Z,15.97
2023-03-26T04:40:17.826Z,16.20
2023-03-26T04:43:03.251Z,15.10
2023-03-26T04:45:48.701Z,13.17
2023-03-26T04:48:33.629Z,13.03
2023-03-26T04:51:23.756Z,12.87
2023-03-26T04:54:10.784Z,12.37
2023-03-26T04:57:02.772Z,11.30
2023-03-26T04:59:48.238Z,11.93
2023-03-26T05:02:33.322Z,11.07
2023-03-26T05:05:18.820Z,11.40
2023-03-26T05:08:04.364Z,11.37
2023-03-26T05:10:49.613Z,11.00
2023-03-26T05:13:34.520Z,10.60
2023-03-26T05:16:19.796Z,10.33
2023-03-26T05:19:05.512Z,10.77
2023-03-26T05:21:51.426Z,10.80
2023-03-26T05:24:36.461Z,10.77
2023-03-26T05:27:21.484Z,10.33
2023-03-26T05:30:07.584Z,9.50
2023-03-26T05:32:53.159Z,9.93
2023-03-26T05:35:38.481Z,10.03
2023-03-26T05:38:23.630Z,10.20
2023-03-26T05:41:10.126Z,9.00
2023-03-26T05:43:55.884Z,9.87
2023-03-26T05:46:41.225Z,9.63
2023-03-26T05:49:26.775Z,9.43
2023-03-26T05:52:11.921Z,9.97
2023-03-26T05:54:57.315Z,8.90
2023-03-26T05:57:42.690Z,9.43
2023-03-26T06:00:28.513Z,9.33
2023-03-26T06:03:13.775Z,9.83
2023-03-26T06:05:59.445Z,9.23
2023-03-26T06:08:46.815Z,10.53
2023-03-26T06:11:32.257Z,10.33
2023-03-26T06:14:17.677Z,9.80
2023-03-26T06:17:03.668Z,11.20
2023-03-26T06:19:49.068Z,11.33
2023-03-26T06:22:34.518Z,12.37
2023-03-26T06:25:20.605Z,12.00
2023-03-26T06:28:05.830Z,14.67
2023-03-26T06:30:51.208Z,13.23
2023-03-26T06:33:36.525Z,12.77
2023-03-26T06:36:21.648Z,13.93
2023-03-26T06:39:07.543Z,14.70
2023-03-26T06:41:53.600Z,14.97
2023-03-26T06:44:38.884Z,14.47
2023-03-26T06:47:24.331Z,16.23
2023-03-26T06:50:10.688Z,16.50
2023-03-26T06:52:56.532Z,18.20
2023-03-26T06:55:41.865Z,18.53
2023-03-26T06:58:27.105Z,18.03
2023-03-26T07:01:12.510Z,18.57
2023-03-26T07:03:59.885Z,18.00
2023-03-26T07:06:45.247Z,18.77
2023-03-26T07:09:30.359Z,19.63
2023-03-26T07:12:15.643Z,19.77
2023-03-26T07:15:02.123Z,20.90
2023-03-26T07:17:47.570Z,20.37
2023-03-26T07:20:33.089Z,20.47
2023-03-26T07:23:18.948Z,21.33
2023-03-26T07:26:22.067Z,19.30
2023-03-26T07:29:12.002Z,20.07
2023-03-26T07:31:57.321Z,20.73
2023-03-26T07:34:45.446Z,20.47
2023-03-26T07:37:51.043Z,21.07
2023-03-26T07:40:55.072Z,18.87
2023-03-26T07:43:49.889Z,19.77
2023-03-26T07:46:35.318Z,19.47
2023-03-26T07:49:21.125Z,19.13
2023-03-26T07:52:06.383Z,18.43
2023-03-26T07:54:52.005Z,17.90
2023-03-26T07:57:40.052Z,17.77
2023-03-26T08:00:28.640Z,18.90
2023-03-26T08:03:19.629Z,18.03
2023-03-26T08:06:16.823Z,18.77
2023-03-26T08:09:17.351Z,18.40
2023-03-26T08:12:41.698Z,19.50
2023-03-26T08:15:33.055Z,18.23
2023-03-26T08:18:21.350Z,17.17
2023-03-26T08:21:06.873Z,15.67
2023-03-26T08:24:08.573Z,17.27
2023-03-26T08:27:18.045Z,15.37
2023-03-26T08:30:23.937Z,14.83
2023-03-26T08:33:20.736Z,13.07
2023-03-26T08:36:06.533Z,12.63
2023-03-26T08:38:51.800Z,12.60
2023-03-26T08:41:51.912Z,13.07
2023-03-26T08:44:54.939Z,13.03
2023-03-26T08:47:40.104Z,12.10
2023-03-26T08:51:06.915Z,13.50
2023-03-26T08:54:10.658Z,13.10
2023-03-26T08:57:05.925Z,12.50
2023-03-26T09:00:10.333Z,12.57
2023-03-26T09:03:08.414Z,14.07
2023-03-26T09:05:56.550Z,17.93
2023-03-26T09:09:19.164Z,15.00
2023-03-26T09:12:35.620Z,13.23
2023-03-26T09:15:39.414Z,13.53
2023-03-26T09:18:45.766Z,14.10
2023-03-26T09:22:08.214Z,13.60
2023-03-26T09:25:11.810Z,12.17
2023-03-26T09:28:00.115Z,11.40
2023-03-26T09:31:24.520Z,12.40
2023-03-26T09:34:28.223Z,12.90
2023-03-26T09:37:56.673Z,12.23
2023-03-26T09:41:01.647Z,11.03
2023-03-26T09:44:19.139Z,10.37
2023-03-26T09:47:27.746Z,10.37
2023-03-26T09:50:28.211Z,9.27
2023-03-26T09:53:51.496Z,9.30
2023-03-26T09:57:04.955Z,8.97
2023-03-26T10:00:36.314Z,8.10
2023-03-26T10:03:38.301Z,6.23
2023-03-26T10:06:48.558Z,6.63
2023-03-26T10:10:08.218Z,6.93
2023-03-26T10:13:14.065Z,6.13
2023-03-26T10:16:25.338Z,6.40
2023-03-26T10:19:36.725Z,7.13
2023-03-26T10:22:57.606Z,6.60
2023-03-26T10:25:49.454Z,7.47
2023-03-26T10:28:56.517Z,5.70
2023-03-26T10:31:48.313Z,6.93
2023-03-26T10:35:04.859Z,7.33
2023-03-26T10:37:56.219Z,7.80
2023-03-26T10:41:02.268Z,7.00
2023-03-26T10:44:12.263Z,6.67
2023-03-26T10:47:12.467Z,6.60
2023-03-26T10:50:28.212Z,6.70
2023-03-26T10:53:43.658Z,6.80
2023-03-26T10:56:34.884Z,6.50
2023-03-26T10:59:20.072Z,6.07
2023-03-26T11:02:30.417Z,7.00
2023-03-26T11:05:24.542Z,7.13
2023-03-26T11:08:31.969Z,7.43
2023-03-26T11:11:36.214Z,7.17
2023-03-26T11:14:34.838Z,7.97
2023-03-26T11:17:57.953Z,8.07
2023-03-26T11:21:19.485Z,7.00
2023-03-26T11:24:20.572Z,6.53
2023-03-26T11:27:16.603Z,6.53
2023-03-26T11:30:16.856Z,6.63
2023-03-26T11:33:08.085Z,7.70
2023-03-26T11:36:01.693Z,6.30
2023-03-26T11:38:50.237Z,8.60
2023-03-26T11:41:36.117Z,7.23
2023-03-26T11:44:27.212Z,7.70
2023-03-26T11:47:15.628Z,7.37
2023-03-26T11:50:03.368Z,7.53
2023-03-26T11:52:49.345Z,8.33
2023-03-26T11:55:34.750Z,8.40
2023-03-26T11:58:36.969Z,8.27
2023-03-26T12:01:27.176Z,8.20
2023-03-26T12:04:14.767Z,8.50
2023-03-26T12:07:14.783Z,6.57
2023-03-26T12:10:20.746Z,7.30
2023-03-26T12:13:33.791Z,7.50
2023-03-26T12:16:21.099Z,8.30
2023-03-26T12:19:19.384Z,9.23
2023-03-26T12:22:05.733Z,8.80
2023-03-26T12:25:01.706Z,8.20
2023-03-26T12:28:14.243Z,6.37
2023-03-26T12:31:04.976Z,5.93
2023-03-26T12:34:16.572Z,6.67
2023-03-26T12:37:03.579Z,5.40
2023-03-26T12:40:10.741Z,5.33
2023-03-26T12:44:49.203Z,5.73
2023-03-26T12:47:57.131Z,5.20
2023-03-26T12:49:38.827Z,6.67
2023-03-26T12:52:33.040Z,6.97
2023-03-26T12:55:40.408Z,6.93
2023-03-26T12:58:50.327Z,6.13
2023-03-26T13:01:41.480Z,6.20
2023-03-26T13:05:05.788Z,8.50
2023-03-26T13:08:17.499Z,7.63
2023-03-26T13:11:27.078Z,7.37
2023-03-26T13:14:35.167Z,7.57
2023-03-26T13:17:25.947Z,7.60
2023-03-26T13:20:31.634Z,7.27
2023-03-26T13:23:38.146Z,7.97
2023-03-26T13:26:50.598Z,7.83
2023-03-26T13:29:54.689Z,8.13
2023-03-26T13:33:04.298Z,9.53
2023-03-26T13:36:14.332Z,8.30
2023-03-26T13:39:31.034Z,7.97
2023-03-26T13:42:36.568Z,6.80
2023-03-26T13:45:35.549Z,8.13
2023-03-26T13:48:28.338Z,8.27
2023-03-26T13:51:24.715Z,8.10
2023-03-26T13:54:18.882Z,8.83
2023-03-26T13:57:25.769Z,8.70
2023-03-26T14:00:15.570Z,8.00
2023-03-26T14:03:20.688Z,10.17
2023-03-26T14:06:16.593Z,9.50
2023-03-26T14:09:07.420Z,8.07
2023-03-26T14:12:01.650Z,9.30
2023-03-26T14:15:07.116Z,9.57
2023-03-26T14:18:20.659Z,6.93
2023-03-26T14:21:18.225Z,6.50
2023-03-26T14:24:16.007Z,5.03
2023-03-26T14:27:11.967Z,4.80
2023-03-26T14:30:17.537Z,6.50
2023-03-26T14:33:27.459Z,5.40
2023-03-26T14:36:12.771Z,4.80
2023-03-26T14:39:11.115Z,4.90
2023-03-26T14:42:07.602Z,12.37
2023-03-26T14:45:11.380Z,9.80
2023-03-26T14:48:37.795Z,4.80
2023-03-26T14:51:45.151Z,5.13
2023-03-26T14:54:33.998Z,4.00
2023-03-26T14:57:51.897Z,4.90
2023-03-26T15:01:04.192Z,5.40
2023-03-26T15:04:28.630Z,4.70
2023-03-26T15:07:28.735Z,5.23
2023-03-26T15:10:44.464Z,5.63
2023-03-26T15:14:08.575Z,5.10
2023-03-26T15:17:14.874Z,4.20
2023-03-26T15:20:34.075Z,4.50
2023-03-26T15:23:50.029Z,5.17
2023-03-26T15:27:13.485Z,6.63
2023-03-26T15:30:01.504Z,7.17
2023-03-26T15:32:55.780Z,7.57
2023-03-26T15:35:57.822Z,7.83
2023-03-26T15:38:58.230Z,8.03
2023-03-26T15:42:12.583Z,7.67
2023-03-26T15:45:00.665Z,7.60
2023-03-26T15:48:11.068Z,7.23
2023-03-26T15:51:29.433Z,7.63
2023-03-26T15:54:19.659Z,7.33
2023-03-26T15:57:15.418Z,7.70
2023-03-26T16:00:19.277Z,7.53
2023-03-26T16:03:10.267Z,7.10
2023-03-26T16:06:24.790Z,7.60
2023-03-26T16:09:18.412Z,7.47
2023-03-26T16:12:28.536Z,6.80
2023-03-26T16:15:24.547Z,6.50
2023-03-26T16:18:09.954Z,6.60
2023-03-26T16:20:55.451Z,6.00
2023-03-26T16:23:47.637Z,6.53
2023-03-26T16:26:51.592Z,5.83
2023-03-26T16:30:00.695Z,5.77
2023-03-26T16:32:52.492Z,5.57
2023-03-26T16:36:03.808Z,12.20
2023-03-26T16:39:07.522Z,6.13
2023-03-26T16:42:05.703Z,5.00
2023-03-26T16:45:04.023Z,5.83
2023-03-26T16:48:12.143Z,6.57
2023-03-26T16:51:38.859Z,6.47
2023-03-26T16:54:23.764Z,5.07
2023-03-26T16:57:21.303Z,5.00
2023-03-26T17:00:15.493Z,5.27
2023-03-26T17:03:27.516Z,5.63
2023-03-26T17:06:31.429Z,5.30
2023-03-26T17:09:38.143Z,5.10
2023-03-26T17:12:34.822Z,4.90
2023-03-26T17:15:39.863Z,4.50
2023-03-26T17:18:46.251Z,4.90
2023-03-26T17:21:45.747Z,5.17
2023-03-26T17:24:44.120Z,5.63
2023-03-26T17:27:39.699Z,5.60
2023-03-26T17:30:43.693Z,4.97
2023-03-26T17:33:37.619Z,5.57
2023-03-26T17:36:41.166Z,5.37
2023-03-26T17:39:38.585Z,5.10
2023-03-26T17:42:35.339Z,4.90
2023-03-26T17:45:22.108Z,5.00
2023-03-26T17:48:23.510Z,4.27
2023-03-26T17:51:27.734Z,3.90
2023-03-26T17:54:35.947Z,4.10
2023-03-26T17:57:32.044Z,4.10
2023-03-26T18:00:22.106Z,3.90
2023-03-26T18:03:16.632Z,3.87
2023-03-26T18:06:07.696Z,4.27
2023-03-26T18:09:10.605Z,3.43
2023-03-26T18:12:16.518Z,3.70
2023-03-26T18:15:25.830Z,3.80
2023-03-26T18:18:16.990Z,3.83
2023-03-26T18:21:05.865Z,3.47
2023-03-26T18:23:51.747Z,3.63
2023-03-26T18:26:51.864Z,3.17
2023-03-26T18:29:37.794Z,3.47
2023-03-26T18:32:27.714Z,3.63
2023-03-26T18:35:17.666Z,4.20
2023-03-26T18:38:02.783Z,3.67
2023-03-26T18:40:55.158Z,3.77
2023-03-26T18:43:44.445Z,3.53
2023-03-26T18:46:33.035Z,3.30
2023-03-26T18:49:18.578Z,2.73
2023-03-26T18:52:03.816Z,3.60
2023-03-26T18:54:52.833Z,3.23
2023-03-26T18:57:38.328Z,3.10
2023-03-26T19:00:26.473Z,3.20
2023-03-26T19:03:15.360Z,3.83
2023-03-26T19:06:01.952Z,3.47
2023-03-26T19:08:47.938Z,3.73
2023-03-26T19:11:37.882Z,3.40
2023-03-26T19:14:23.742Z,3.90
2023-03-26T19:17:11.804Z,3.17
2023-03-26T19:19:57.709Z,3.30
2023-03-26T19:22:45.044Z,3.40
2023-03-26T19:25:49.815Z,3.00
2023-03-26T19:28:41.922Z,2.90
2023-03-26T19:31:37.174Z,2.90
2023-03-26T19:34:32.247Z,2.97
2023-03-26T19:37:26.369Z,3.17
2023-03-26T19:40:33.581Z,3.30
2023-03-26T19:43:19.292Z,3.17
2023-03-26T19:46:04.511Z,3.77
2023-03-26T19:48:52.456Z,3.53
2023-03-26T19:51:37.893Z,3.60
2023-03-26T19:54:23.033Z,3.73
2023-03-26T19:57:09.052Z,3.60
2023-03-26T19:59:54.556Z,3.53
2023-03-26T20:02:41.547Z,3.03
2023-03-26T20:05:31.948Z,3.53
2023-03-26T20:08:17.630Z,3.40
2023-03-26T20:11:02.931Z,3.40
2023-03-26T20:13:49.201Z,3.00
2023-03-26T20:16:34.631Z,3.13
2023-03-26T20:19:19.909Z,3.10
2023-03-26T20:22:07.402Z,3.40
2023-03-26T20:24:53.195Z,3.23
2023-03-26T20:27:38.482Z,2.90
2023-03-26T20:30:37.048Z,2.77
2023-03-26T20:33:26.009Z,2.87
2023-03-26T20:36:13.047Z,3.00
2023-03-26T20:38:58.703Z,2.90
2023-03-26T20:41:47.783Z,2.80
2023-03-26T20:44:34.542Z,2.97
2023-03-26T20:47:19.684Z,2.70
2023-03-26T20:50:05.780Z,2.47
2023-03-26T20:52:51.249Z,3.10
2023-03-26T20:55:36.584Z,2.73
2023-03-26T20:58:26.815Z,3.20
2023-03-26T21:01:17.523Z,2.90
2023-03-26T21:04:02.960Z,2.87
2023-03-26T21:06:48.861Z,2.37
2023-03-26T21:09:34.478Z,2.73
2023-03-26T21:12:34.843Z,3.13
2023-03-26T21:15:23.723Z,2.60
2023-03-26T21:18:09.790Z,2.83
2023-03-26T21:21:18.177Z,2.60
2023-03-26T21:24:25.121Z,2.57
2023-03-26T21:27:25.539Z,3.33
2023-03-26T21:30:14.207Z,3.00
2023-03-26T21:32:59.998Z,2.50
2023-03-26T21:35:45.555Z,3.10
2023-03-26T21:38:31.174Z,2.80
2023-03-26T21:41:47.439Z,17.10
2023-03-26T21:44:33.586Z,3.20
2023-03-26T21:47:19.010Z,3.37
2023-03-26T21:50:05.861Z,2.77
2023-03-26T21:52:51.849Z,3.00
2023-03-26T21:55:58.166Z,2.90
2023-03-26T21:59:02.267Z,2.53
2023-03-26T22:01:57.043Z,2.80
2023-03-26T22:04:54.414Z,3.00
2023-03-26T22:07:51.279Z,3.23
2023-03-26T22:10:36.259Z,2.67
2023-03-26T22:13:21.546Z,3.07
2023-03-26T22:16:08.868Z,3.30
2023-03-26T22:18:54.316Z,2.60
2023-03-26T22:21:39.991Z,2.83
2023-03-26T22:24:25.304Z,3.20
2023-03-26T22:27:10.730Z,3.17
2023-03-26T22:29:55.762Z,2.87
2023-03-26T22:32:40.952Z,3.33
2023-03-26T22:35:26.088Z,2.70
2023-03-26T22:38:11.082Z,3.50
2023-03-26T22:40:57.658Z,3.30
2023-03-26T22:43:42.848Z,2.83
2023-03-26T22:46:27.874Z,2.80
2023-03-26T22:49:13.007Z,3.07
2023-03-26T22:51:58.021Z,2.60
2023-03-26T22:54:42.973Z,2.80
2023-03-26T22:57:27.953Z,3.50
2023-03-26T23:00:13.599Z,3.00
2023-03-26T23:02:58.675Z,2.77
2023-03-26T23:05:46.883Z,3.30
2023-03-26T23:08:32.382Z,2.90
2023-03-26T23:11:19.394Z,3.23
2023-03-26T23:14:04.774Z,3.30
2023-03-26T23:16:49.586Z,3.67
2023-03-26T23:19:34.790Z,3.23
2023-03-26T23:22:19.843Z,3.27
2023-03-26T23:25:05.788Z,3.60
2023-03-26T23:27:51.119Z,3.40
2023-03-26T23:30:36.290Z,3.07
2023-03-26T23:33:24.742Z,3.27
2023-03-26T23:36:14.035Z,3.00
2023-03-26T23:38:59.151Z,2.70
2023-03-26T23:41:44.158Z,2.90
2023-03-26T23:44:29.487Z,2.90
2023-03-26T23:47:14.288Z,3.37
2023-03-26T23:49:59.672Z,2.80
2023-03-26T23:52:44.761Z,2.60
2023-03-26T23:55:29.837Z,2.60
2023-03-26T23:58:15.769Z,3.07
